High Point, NC

9:24 PM EDT on September 01, 2015 (GMT -0400)
Winter Garden | | Change Station
CLOSE
Current Station
Personal Weather Station
Location: High Point, NC
Elevation: 850 ft
Nearby Weather Stations

Elev 850 ft 36.01 °N, 80.06 °W | Updated 6 seconds ago

Clear
Clear
73.0 °F
Feels Like 73 °F
N
0.0
Wind Variable Wind from SW
Gusts 0.0 mph

Today
High -- | Low -- °F
--% Chance of Precip.
Yesterday
High -- | Low -- °F
Precip. -- in
6:51 AM 7:48 PM
Waning Gibbous, 85% visible
Pressure 30.05 in
Visibility 10.0 miles
Clouds Few 25000 ft
Heat Index 73 °F
Dew Point 67 °F
Humidity 80%
Rainfall 0.00 in
Snow Depth Not available.
UV 0 out of 12
Pollen 8.70 out of 12
Air Quality Not available.
Flu Activity Not available.
METAR KGSO 020054Z 00000KT 10SM FEW250 28/17 A3009 RMK AO2 SLP176 T02780172
Pressure 30.05 in
Visibility 10.0 miles
Clouds Few 25000 ft
Heat Index 73 °F
Dew Point 67 °F
Humidity 80%
Rainfall 0.00 in
Snow Depth Not available.
UV 0 out of 12
Pollen 8.70 out of 12
Air Quality Not available.
Flu Activity Not available.
METAR KGSO 020054Z 00000KT 10SM FEW250 28/17 A3009 RMK AO2 SLP176 T02780172

10-Day Weather Forecast

×

Almanac

Astronomy

Sep. 01, 2015 Rise Set
Actual Time
Civil Twilight
Nautical Twilight
Astronomical Twilight
Moon
Length of Visible Light
Length of Day
Tomorrow will be .
, % of the Moon is Illuminated

Today's Extremes

State Highs State Lows

Community

WunderPhotos

Upload Photos

1,851,672 photos uploaded!

WunderBlogs® & News

Nearby

Air Quality

  Air Quality AQ Index Pollutant
Not available.

Snow Depth

Station Depth Elevation

Earthquake Activity

City Distance Mag. Time & Date
Minimum magnitude displayed is 2.5.

Coastal Water Temperatures

Place Temperature

Stations

Nearby Weather Stations

Station Location Temp. Windchill Dew Point Humidity Wind Precip. Elev Updated Type